createdAt,value
2018-09-14T00:02:15.346Z,18.30
2018-09-14T00:04:44.422Z,18.20
2018-09-14T00:07:13.502Z,18.10
2018-09-14T00:09:42.673Z,18.20
2018-09-14T00:12:11.790Z,18.10
2018-09-14T00:14:40.894Z,18.00
2018-09-14T00:17:10.026Z,18.00
2018-09-14T00:19:39.145Z,17.90
2018-09-14T00:22:08.297Z,17.90
2018-09-14T00:24:37.446Z,18.00
2018-09-14T00:27:06.574Z,17.90
2018-09-14T00:29:35.664Z,18.00
2018-09-14T00:32:04.983Z,17.90
2018-09-14T00:34:34.092Z,17.90
2018-09-14T00:37:03.221Z,18.00
2018-09-14T00:39:32.343Z,17.80
2018-09-14T00:42:01.581Z,17.80
2018-09-14T00:44:30.698Z,17.70
2018-09-14T00:46:59.824Z,17.70
2018-09-14T00:49:28.912Z,17.60
2018-09-14T00:51:58.016Z,17.60
2018-09-14T00:54:27.146Z,17.70
2018-09-14T00:56:56.234Z,17.70
2018-09-14T00:59:25.339Z,17.70
2018-09-14T01:01:54.722Z,17.60
2018-09-14T01:04:24.024Z,17.60
2018-09-14T01:06:53.108Z,17.60
2018-09-14T01:09:25.034Z,17.50
2018-09-14T01:11:55.206Z,17.40
2018-09-14T01:14:24.609Z,17.40
2018-09-14T01:16:54.145Z,17.50
2018-09-14T01:19:23.551Z,17.60
2018-09-14T01:21:52.921Z,17.60
2018-09-14T01:24:22.014Z,17.50
2018-09-14T01:26:51.225Z,17.60
2018-09-14T01:29:20.326Z,17.60
2018-09-14T01:31:49.399Z,17.70
2018-09-14T01:34:18.489Z,17.70
2018-09-14T01:36:47.590Z,17.70
2018-09-14T01:39:16.743Z,17.70
2018-09-14T01:41:45.847Z,17.70
2018-09-14T01:44:14.969Z,17.70
2018-09-14T01:46:44.096Z,17.70
2018-09-14T01:49:13.184Z,17.70
2018-09-14T01:51:42.263Z,17.70
2018-09-14T01:54:11.409Z,17.80
2018-09-14T01:56:40.684Z,17.80
2018-09-14T01:59:09.755Z,17.80
2018-09-14T02:01:38.888Z,17.80
2018-09-14T02:04:08.002Z,17.70
2018-09-14T02:06:37.356Z,17.70
2018-09-14T02:09:08.439Z,17.80
2018-09-14T02:11:37.637Z,17.70
2018-09-14T02:14:06.919Z,17.70
2018-09-14T02:16:36.123Z,17.70
2018-09-14T02:19:05.246Z,17.70
2018-09-14T02:21:34.385Z,17.70
2018-09-14T02:24:03.509Z,17.70
2018-09-14T02:26:32.724Z,17.70
2018-09-14T02:29:01.813Z,17.70
2018-09-14T02:31:30.922Z,17.70
2018-09-14T02:34:00.060Z,17.70
2018-09-14T02:36:29.151Z,17.70
2018-09-14T02:38:58.284Z,17.70
2018-09-14T02:41:27.428Z,17.60
2018-09-14T02:43:56.518Z,17.60
2018-09-14T02:46:25.620Z,17.60
2018-09-14T02:48:54.716Z,17.70
2018-09-14T02:51:24.531Z,17.70
2018-09-14T02:53:53.718Z,17.60
2018-09-14T02:56:22.853Z,17.60
2018-09-14T02:58:51.959Z,17.60
2018-09-14T03:01:21.066Z,17.60
2018-09-14T03:03:50.364Z,17.60
2018-09-14T03:06:19.676Z,17.60
2018-09-14T03:08:48.996Z,17.60
2018-09-14T03:11:18.108Z,17.60
2018-09-14T03:13:47.226Z,17.70
2018-09-14T03:16:16.342Z,17.60
2018-09-14T03:18:45.566Z,17.60
2018-09-14T03:21:14.898Z,17.60
2018-09-14T03:23:44.297Z,17.70
2018-09-14T03:26:13.871Z,17.60
2018-09-14T03:28:42.989Z,17.60
2018-09-14T03:31:12.093Z,17.60
2018-09-14T03:33:41.178Z,17.50
2018-09-14T03:36:10.286Z,17.40
2018-09-14T03:38:39.393Z,17.40
2018-09-14T03:41:08.517Z,17.40
2018-09-14T03:43:37.654Z,17.40
2018-09-14T03:46:06.808Z,17.40
2018-09-14T03:48:35.958Z,17.40
2018-09-14T03:51:05.070Z,17.50
2018-09-14T03:53:34.164Z,17.50
2018-09-14T03:56:03.336Z,17.50
2018-09-14T03:58:32.434Z,17.40
2018-09-14T04:01:01.906Z,17.30
2018-09-14T04:03:31.016Z,17.40
2018-09-14T04:06:00.146Z,17.40
2018-09-14T04:08:29.265Z,17.40
2018-09-14T04:10:58.550Z,17.30
2018-09-14T04:13:27.660Z,17.30
2018-09-14T04:15:56.754Z,17.20
2018-09-14T04:18:25.904Z,17.20
2018-09-14T04:20:55.492Z,17.10
2018-09-14T04:23:24.670Z,17.20
2018-09-14T04:25:53.750Z,17.30
2018-09-14T04:28:22.912Z,17.30
2018-09-14T04:30:52.021Z,17.30
2018-09-14T04:33:21.130Z,17.30
2018-09-14T04:35:50.224Z,17.30
2018-09-14T04:38:19.438Z,17.20
2018-09-14T04:40:48.420Z,17.30
2018-09-14T04:43:17.515Z,17.40
2018-09-14T04:45:46.669Z,17.30
2018-09-14T04:48:15.817Z,17.30
2018-09-14T04:50:44.900Z,17.30
2018-09-14T04:53:14.063Z,17.20
2018-09-14T04:55:43.156Z,17.20
2018-09-14T04:58:12.277Z,17.40
2018-09-14T05:00:41.364Z,17.30
2018-09-14T05:03:10.447Z,17.30
2018-09-14T05:05:39.586Z,17.20
2018-09-14T05:08:08.672Z,17.20
2018-09-14T05:10:37.751Z,17.20
2018-09-14T05:13:07.056Z,17.20
2018-09-14T05:15:36.193Z,17.20
2018-09-14T05:18:06.024Z,17.20
2018-09-14T05:20:35.215Z,17.20
2018-09-14T05:23:04.340Z,17.20
2018-09-14T05:25:33.447Z,17.10
2018-09-14T05:28:02.560Z,17.20
2018-09-14T05:30:31.676Z,17.30
2018-09-14T05:33:00.798Z,17.30
2018-09-14T05:35:29.904Z,17.30
2018-09-14T05:37:59.005Z,17.30
2018-09-14T05:40:28.125Z,17.40
2018-09-14T05:42:57.237Z,17.40
2018-09-14T05:45:26.352Z,17.40
2018-09-14T05:47:55.452Z,17.40
2018-09-14T05:50:24.521Z,17.40
2018-09-14T05:52:53.587Z,17.50
2018-09-14T05:55:22.687Z,17.50
2018-09-14T05:57:51.777Z,17.60
2018-09-14T06:00:20.916Z,17.50
2018-09-14T06:02:50.005Z,17.60
2018-09-14T06:05:19.143Z,17.50
2018-09-14T06:07:48.275Z,17.40
2018-09-14T06:10:17.363Z,17.40
2018-09-14T06:12:46.434Z,17.50
2018-09-14T06:15:15.863Z,17.50
2018-09-14T06:17:44.985Z,17.50
2018-09-14T06:20:14.145Z,17.50
2018-09-14T06:22:43.345Z,17.50
2018-09-14T06:25:12.909Z,17.40
2018-09-14T06:27:42.035Z,17.30
2018-09-14T06:30:11.136Z,17.30
2018-09-14T06:32:40.219Z,17.40
2018-09-14T06:35:09.329Z,17.40
2018-09-14T06:37:38.421Z,17.50
2018-09-14T06:40:07.536Z,17.60
2018-09-14T06:42:36.605Z,17.70
2018-09-14T06:45:05.796Z,17.80
2018-09-14T06:47:34.842Z,17.90
2018-09-14T06:50:03.996Z,17.90
2018-09-14T06:52:33.058Z,17.90
2018-09-14T06:55:02.163Z,17.90
2018-09-14T06:57:31.228Z,18.00
2018-09-14T07:00:00.309Z,17.90
2018-09-14T07:02:29.419Z,18.00
2018-09-14T07:04:58.708Z,18.10
2018-09-14T07:07:27.825Z,18.20
2018-09-14T07:09:56.931Z,18.20
2018-09-14T07:12:26.018Z,18.30
2018-09-14T07:14:55.154Z,18.30
2018-09-14T07:17:24.415Z,18.30
2018-09-14T07:19:53.541Z,18.30
2018-09-14T07:22:22.860Z,18.40
2018-09-14T07:24:52.599Z,18.50
2018-09-14T07:27:21.782Z,18.50
2018-09-14T07:29:50.911Z,18.60
2018-09-14T07:32:20.044Z,18.70
2018-09-14T07:34:49.195Z,18.60
2018-09-14T07:37:18.293Z,18.70
2018-09-14T07:39:47.408Z,18.70
2018-09-14T07:42:16.487Z,18.80
2018-09-14T07:44:45.581Z,18.90
2018-09-14T07:47:14.611Z,19.00
2018-09-14T07:49:43.665Z,19.20
2018-09-14T07:52:12.739Z,19.30
2018-09-14T07:54:41.851Z,19.40
2018-09-14T07:57:10.919Z,19.60
2018-09-14T07:59:40.062Z,19.70
2018-09-14T08:02:09.121Z,19.70
2018-09-14T08:04:38.167Z,19.70
2018-09-14T08:07:07.223Z,19.80
2018-09-14T08:09:36.307Z,19.80
2018-09-14T08:12:05.521Z,19.90
2018-09-14T08:14:34.583Z,20.10
2018-09-14T08:17:03.633Z,20.00
2018-09-14T08:19:33.139Z,19.80
2018-09-14T08:22:02.273Z,19.90
2018-09-14T08:24:31.333Z,20.00
2018-09-14T08:27:00.562Z,20.00
2018-09-14T08:29:29.582Z,20.10
2018-09-14T08:31:58.677Z,20.20
2018-09-14T08:34:27.773Z,20.30
2018-09-14T08:36:57.390Z,20.40
2018-09-14T08:39:26.498Z,20.40
2018-09-14T08:41:55.583Z,20.40
2018-09-14T08:44:24.669Z,20.50
2018-09-14T08:46:53.733Z,20.50
2018-09-14T08:49:22.825Z,20.50
2018-09-14T08:51:51.906Z,20.50
2018-09-14T08:54:20.985Z,20.60
2018-09-14T08:56:50.063Z,20.70
2018-09-14T08:59:19.159Z,20.90
2018-09-14T09:01:48.249Z,21.00
2018-09-14T09:04:17.378Z,21.00
2018-09-14T09:06:46.473Z,21.20
2018-09-14T09:09:15.558Z,21.20
2018-09-14T09:11:44.627Z,21.20
2018-09-14T09:14:14.529Z,21.20
2018-09-14T09:16:43.622Z,21.30
2018-09-14T09:19:12.751Z,21.50
2018-09-14T09:21:42.271Z,21.80
2018-09-14T09:24:11.323Z,21.90
2018-09-14T09:26:40.406Z,21.80
2018-09-14T09:29:09.500Z,21.90
2018-09-14T09:31:38.706Z,22.00
2018-09-14T09:34:07.853Z,21.90
2018-09-14T09:36:37.577Z,22.20
2018-09-14T09:39:09.215Z,22.40
2018-09-14T09:41:38.501Z,22.40
2018-09-14T09:44:07.763Z,22.20
2018-09-14T09:46:36.869Z,22.30
2018-09-14T09:49:06.323Z,22.50
2018-09-14T09:51:35.389Z,22.60
2018-09-14T09:54:04.501Z,22.40
2018-09-14T09:56:33.709Z,22.50
2018-09-14T09:59:02.718Z,22.60
2018-09-14T10:01:34.820Z,22.80
2018-09-14T10:04:09.262Z,23.30
2018-09-14T10:06:38.503Z,23.60
2018-09-14T10:09:08.721Z,23.60
2018-09-14T10:11:37.942Z,23.50
2018-09-14T10:14:07.105Z,23.30
2018-09-14T10:16:36.127Z,23.20
2018-09-14T10:19:05.275Z,23.50
2018-09-14T10:21:34.415Z,23.90
2018-09-14T10:24:03.983Z,24.00
2018-09-14T10:26:33.106Z,24.00
2018-09-14T10:29:02.262Z,24.00
2018-09-14T10:31:31.289Z,23.80
2018-09-14T10:34:00.417Z,23.50
2018-09-14T10:36:29.497Z,23.70
2018-09-14T10:38:58.582Z,23.90
2018-09-14T10:41:27.831Z,23.70
2018-09-14T10:43:56.978Z,23.70
2018-09-14T10:46:26.037Z,23.60
2018-09-14T10:48:55.256Z,23.50
2018-09-14T10:51:24.269Z,23.40
2018-09-14T10:53:53.359Z,23.10
2018-09-14T10:56:22.481Z,23.20
2018-09-14T10:58:51.579Z,23.20
2018-09-14T11:01:20.721Z,23.30
2018-09-14T11:03:50.064Z,23.40
2018-09-14T11:06:19.199Z,23.70
2018-09-14T11:08:48.381Z,23.70
2018-09-14T11:11:17.482Z,23.60
2018-09-14T11:13:47.476Z,23.60
2018-09-14T11:16:16.599Z,23.60
2018-09-14T11:18:45.796Z,23.70
2018-09-14T11:21:14.767Z,23.40
2018-09-14T11:23:43.918Z,23.10
2018-09-14T11:26:13.583Z,22.80
2018-09-14T11:28:42.657Z,22.40
2018-09-14T11:31:11.773Z,22.40
2018-09-14T11:33:40.857Z,22.70
2018-09-14T11:36:09.926Z,22.80
2018-09-14T11:38:39.343Z,23.00
2018-09-14T11:41:08.526Z,23.20
2018-09-14T11:43:37.621Z,23.30
2018-09-14T11:46:06.778Z,23.80
2018-09-14T11:48:36.409Z,24.80
2018-09-14T11:51:05.545Z,25.80
2018-09-14T11:53:34.995Z,26.00
2018-09-14T11:56:03.978Z,26.30
2018-09-14T11:58:33.048Z,26.20
2018-09-14T12:01:02.293Z,26.00
2018-09-14T12:03:31.404Z,25.50
2018-09-14T12:06:00.660Z,25.20
2018-09-14T12:08:29.757Z,25.50
2018-09-14T12:10:58.959Z,25.20
2018-09-14T12:13:28.022Z,25.40
2018-09-14T12:15:57.133Z,26.00
2018-09-14T12:18:26.206Z,26.40
2018-09-14T12:20:55.517Z,26.70
2018-09-14T12:23:25.311Z,26.80
2018-09-14T12:25:54.367Z,26.70
2018-09-14T12:28:23.955Z,26.60
2018-09-14T12:30:53.015Z,26.50
2018-09-14T12:33:22.190Z,27.00
2018-09-14T12:35:52.007Z,26.80
2018-09-14T12:38:21.115Z,26.80
2018-09-14T12:40:50.234Z,26.50
2018-09-14T12:43:19.383Z,25.70
2018-09-14T12:45:49.501Z,25.40
2018-09-14T12:48:18.565Z,26.00
2018-09-14T12:50:47.685Z,26.90
2018-09-14T12:53:16.917Z,27.10
2018-09-14T12:55:46.054Z,25.80
2018-09-14T12:58:15.172Z,25.80
2018-09-14T13:00:44.254Z,25.40
2018-09-14T13:03:13.433Z,25.70
2018-09-14T13:05:42.534Z,26.70
2018-09-14T13:08:11.596Z,27.00
2018-09-14T13:10:40.692Z,27.10
2018-09-14T13:13:09.829Z,27.40
2018-09-14T13:15:38.957Z,27.40
2018-09-14T13:18:08.060Z,27.10
2018-09-14T13:20:37.135Z,26.90
2018-09-14T13:23:06.238Z,26.90
2018-09-14T13:25:35.295Z,26.60
2018-09-14T13:28:04.416Z,26.30
2018-09-14T13:30:33.698Z,25.70
2018-09-14T13:33:02.779Z,25.00
2018-09-14T13:35:31.951Z,25.00
2018-09-14T13:38:01.131Z,25.10
2018-09-14T13:40:30.243Z,25.10
2018-09-14T13:42:59.384Z,24.80
2018-09-14T13:45:28.567Z,24.90
2018-09-14T13:47:57.663Z,25.10
2018-09-14T13:50:26.787Z,24.90
2018-09-14T13:52:55.961Z,25.00
2018-09-14T13:55:24.978Z,24.90
2018-09-14T13:57:54.189Z,24.90
2018-09-14T14:00:23.333Z,25.40
2018-09-14T14:02:52.497Z,25.40
2018-09-14T14:05:21.533Z,25.00
2018-09-14T14:07:50.583Z,24.70
2018-09-14T14:10:19.721Z,24.40
2018-09-14T14:12:48.749Z,24.60
2018-09-14T14:15:17.904Z,24.60
2018-09-14T14:17:47.059Z,24.20
2018-09-14T14:20:16.168Z,24.10
2018-09-14T14:22:45.272Z,24.10
2018-09-14T14:25:14.464Z,24.10
2018-09-14T14:27:43.579Z,24.00
2018-09-14T14:30:12.681Z,24.20
2018-09-14T14:32:42.390Z,24.40
2018-09-14T14:35:11.565Z,24.70
2018-09-14T14:37:40.644Z,25.30
2018-09-14T14:40:09.765Z,26.40
2018-09-14T14:42:38.879Z,26.80
2018-09-14T14:45:08.500Z,26.90
2018-09-14T14:47:37.575Z,26.30
2018-09-14T14:50:07.597Z,26.70
2018-09-14T14:52:36.695Z,27.00
2018-09-14T14:55:05.869Z,27.10
2018-09-14T14:57:34.950Z,27.50
2018-09-14T15:00:04.170Z,27.00
2018-09-14T15:02:33.282Z,27.00
2018-09-14T15:05:02.400Z,26.80
2018-09-14T15:07:31.492Z,26.80
2018-09-14T15:10:01.313Z,27.10
2018-09-14T15:12:30.387Z,27.20
2018-09-14T15:14:59.505Z,26.30
2018-09-14T15:17:28.595Z,26.20
2018-09-14T15:19:57.665Z,25.50
2018-09-14T15:22:26.765Z,25.20
2018-09-14T15:24:55.909Z,24.70
2018-09-14T15:27:25.015Z,24.00
2018-09-14T15:29:54.149Z,23.90
2018-09-14T15:32:23.314Z,23.60
2018-09-14T15:34:52.422Z,23.40
2018-09-14T15:37:21.536Z,23.50
2018-09-14T15:39:50.651Z,23.70
2018-09-14T15:42:19.753Z,23.80
2018-09-14T15:44:48.955Z,23.70
2018-09-14T15:47:18.239Z,23.90
2018-09-14T15:49:47.344Z,23.90
2018-09-14T15:52:16.470Z,24.00
2018-09-14T15:54:45.594Z,24.00
2018-09-14T15:57:14.714Z,23.70
2018-09-14T15:59:43.858Z,23.50
2018-09-14T16:02:12.952Z,23.60
2018-09-14T16:04:42.085Z,23.20
2018-09-14T16:07:11.196Z,23.10
2018-09-14T16:09:40.344Z,23.10
2018-09-14T16:12:09.473Z,22.70
2018-09-14T16:14:38.574Z,22.70
2018-09-14T16:17:07.736Z,22.70
2018-09-14T16:19:36.852Z,22.60
2018-09-14T16:22:05.971Z,22.60
2018-09-14T16:24:35.062Z,22.50
2018-09-14T16:27:04.882Z,22.50
2018-09-14T16:29:34.015Z,22.70
2018-09-14T16:32:03.108Z,22.70
2018-09-14T16:34:32.240Z,22.60
2018-09-14T16:37:01.435Z,22.50
2018-09-14T16:39:30.459Z,22.60
2018-09-14T16:41:59.544Z,22.70
2018-09-14T16:44:28.658Z,23.30
2018-09-14T16:46:57.704Z,23.50
2018-09-14T16:49:26.914Z,23.20
2018-09-14T16:51:56.446Z,23.30
2018-09-14T16:54:26.126Z,23.60
2018-09-14T16:56:55.250Z,23.60
2018-09-14T16:59:24.333Z,23.40
2018-09-14T17:01:53.422Z,23.80
2018-09-14T17:04:22.518Z,24.40
2018-09-14T17:06:51.606Z,24.80
2018-09-14T17:09:20.754Z,25.20
2018-09-14T17:11:49.962Z,24.90
2018-09-14T17:14:19.116Z,24.20
2018-09-14T17:16:48.206Z,23.60
2018-09-14T17:19:17.316Z,23.10
2018-09-14T17:21:46.418Z,22.80
2018-09-14T17:24:15.512Z,22.60
2018-09-14T17:26:44.667Z,22.40
2018-09-14T17:29:13.758Z,22.40
2018-09-14T17:31:42.857Z,22.30
2018-09-14T17:34:12.030Z,22.20
2018-09-14T17:36:41.133Z,22.00
2018-09-14T17:39:11.248Z,21.90
2018-09-14T17:41:40.390Z,21.90
2018-09-14T17:44:09.553Z,21.80
2018-09-14T17:46:38.654Z,21.70
2018-09-14T17:49:07.802Z,21.70
2018-09-14T17:51:37.144Z,21.60
2018-09-14T17:54:06.436Z,21.60
2018-09-14T17:56:36.236Z,21.40
2018-09-14T17:59:05.566Z,21.30
2018-09-14T18:01:34.811Z,21.20
2018-09-14T18:04:04.014Z,21.20
2018-09-14T18:06:33.124Z,21.00
2018-09-14T18:09:02.240Z,21.10
2018-09-14T18:11:31.402Z,21.10
2018-09-14T18:14:00.510Z,20.90
2018-09-14T18:16:29.759Z,20.60
2018-09-14T18:18:58.856Z,20.50
2018-09-14T18:21:27.983Z,20.60
2018-09-14T18:23:57.621Z,20.60
2018-09-14T18:26:26.758Z,20.70
2018-09-14T18:28:55.946Z,20.60
2018-09-14T18:31:25.116Z,20.60
2018-09-14T18:33:54.346Z,20.60
2018-09-14T18:36:23.549Z,20.50
2018-09-14T18:38:52.662Z,20.50
2018-09-14T18:41:21.771Z,20.50
2018-09-14T18:43:50.984Z,20.60
2018-09-14T18:46:20.148Z,20.50
2018-09-14T18:48:49.325Z,20.40
2018-09-14T18:51:18.529Z,20.40
2018-09-14T18:53:47.788Z,20.40
2018-09-14T18:56:16.926Z,20.20
2018-09-14T18:58:46.058Z,20.20
2018-09-14T19:01:15.182Z,20.10
2018-09-14T19:03:44.390Z,20.20
2018-09-14T19:06:13.620Z,20.20
2018-09-14T19:08:42.782Z,20.10
2018-09-14T19:11:11.894Z,20.10
2018-09-14T19:13:41.048Z,20.10
2018-09-14T19:16:10.186Z,20.00
2018-09-14T19:18:39.328Z,20.00
2018-09-14T19:21:08.442Z,20.00
2018-09-14T19:23:37.592Z,20.10
2018-09-14T19:26:06.796Z,20.00
2018-09-14T19:28:35.926Z,20.00
2018-09-14T19:31:05.833Z,20.00
2018-09-14T19:33:34.987Z,20.00
2018-09-14T19:36:04.372Z,20.00
2018-09-14T19:38:33.556Z,20.00
2018-09-14T19:41:02.650Z,20.00
2018-09-14T19:43:31.752Z,20.00
2018-09-14T19:46:00.900Z,20.10
2018-09-14T19:48:30.021Z,20.10
2018-09-14T19:50:59.107Z,20.10
2018-09-14T19:53:28.214Z,20.10
2018-09-14T19:55:57.639Z,20.10
2018-09-14T19:58:26.740Z,20.00
2018-09-14T20:00:56.238Z,20.00
2018-09-14T20:03:25.304Z,20.00
2018-09-14T20:05:54.376Z,20.00
2018-09-14T20:08:23.443Z,20.00
2018-09-14T20:10:52.574Z,20.00
2018-09-14T20:13:21.690Z,19.90
2018-09-14T20:15:51.010Z,19.90
2018-09-14T20:18:20.171Z,19.90
2018-09-14T20:20:49.248Z,19.90
2018-09-14T20:23:18.795Z,19.90
2018-09-14T20:25:48.341Z,19.90
2018-09-14T20:28:17.382Z,19.80
2018-09-14T20:30:46.504Z,19.90
2018-09-14T20:33:15.590Z,19.80
2018-09-14T20:35:44.796Z,19.70
2018-09-14T20:38:13.877Z,19.70
2018-09-14T20:40:42.994Z,19.70
2018-09-14T20:43:17.015Z,19.60
2018-09-14T20:45:48.900Z,19.80
2018-09-14T20:48:17.996Z,19.70
2018-09-14T20:50:47.144Z,19.70
2018-09-14T20:53:16.243Z,19.60
2018-09-14T20:55:45.372Z,19.60
2018-09-14T20:58:14.946Z,19.60
2018-09-14T21:00:44.075Z,19.50
2018-09-14T21:03:13.153Z,19.60
2018-09-14T21:05:42.290Z,19.60
2018-09-14T21:08:11.417Z,19.40
2018-09-14T21:10:40.522Z,19.50
2018-09-14T21:13:09.666Z,19.40
2018-09-14T21:15:38.760Z,19.40
2018-09-14T21:18:07.855Z,19.40
2018-09-14T21:20:36.976Z,19.30
2018-09-14T21:23:06.084Z,19.30
2018-09-14T21:25:35.211Z,19.20
2018-09-14T21:28:04.340Z,19.30
2018-09-14T21:30:33.441Z,19.20
2018-09-14T21:33:02.560Z,19.20
2018-09-14T21:35:31.638Z,19.20
2018-09-14T21:38:00.764Z,19.10
2018-09-14T21:40:29.915Z,19.20
2018-09-14T21:42:58.991Z,19.10
2018-09-14T21:45:28.156Z,19.20
2018-09-14T21:47:57.262Z,19.00
2018-09-14T21:50:26.408Z,19.00
2018-09-14T21:52:55.479Z,19.00
2018-09-14T21:55:24.584Z,18.90
2018-09-14T21:57:53.686Z,18.90
2018-09-14T22:00:28.206Z,18.90
2018-09-14T22:02:57.457Z,18.90
2018-09-14T22:05:26.594Z,18.90
2018-09-14T22:07:55.704Z,18.80
2018-09-14T22:10:24.888Z,18.80
2018-09-14T22:12:53.980Z,18.70
2018-09-14T22:15:23.090Z,18.70
2018-09-14T22:17:52.214Z,18.50
2018-09-14T22:20:21.296Z,18.50
2018-09-14T22:22:50.384Z,18.50
2018-09-14T22:25:19.513Z,18.50
2018-09-14T22:27:48.634Z,18.50
2018-09-14T22:30:17.734Z,18.50
2018-09-14T22:32:46.851Z,18.50
2018-09-14T22:35:16.054Z,18.50
2018-09-14T22:37:45.123Z,18.50
2018-09-14T22:40:14.250Z,18.60
2018-09-14T22:42:43.357Z,18.50
2018-09-14T22:45:12.475Z,18.40
2018-09-14T22:47:41.584Z,18.40
2018-09-14T22:50:10.720Z,18.50
2018-09-14T22:52:39.863Z,18.50
2018-09-14T22:55:08.985Z,18.50
2018-09-14T22:57:38.103Z,18.50
2018-09-14T23:00:07.219Z,18.50
2018-09-14T23:02:36.949Z,18.50
2018-09-14T23:05:06.067Z,18.40
2018-09-14T23:07:35.198Z,18.40
2018-09-14T23:10:04.381Z,18.40
2018-09-14T23:12:33.486Z,18.40
2018-09-14T23:15:02.605Z,18.30
2018-09-14T23:17:31.697Z,18.40
2018-09-14T23:20:00.785Z,18.50
2018-09-14T23:22:29.880Z,18.50
2018-09-14T23:24:59.051Z,18.50
2018-09-14T23:27:28.155Z,18.50
2018-09-14T23:29:57.252Z,18.50
2018-09-14T23:32:26.368Z,18.40
2018-09-14T23:34:55.472Z,18.40
2018-09-14T23:37:24.582Z,18.30
2018-09-14T23:39:53.668Z,18.40
2018-09-14T23:42:22.744Z,18.40
2018-09-14T23:44:51.866Z,18.30
2018-09-14T23:47:20.973Z,18.30
2018-09-14T23:49:50.144Z,18.40
2018-09-14T23:52:19.248Z,18.30
2018-09-14T23:54:48.330Z,18.30
2018-09-14T23:57:17.466Z,18.30
2018-09-14T23:59:46.570Z,18.30
